D/T METAR WX W/DIR W/SPE G/SPE TEMP DEWP
27/05/19 07:50 EGNS 270650Z 28012KT 250V330 9999 FEW014 12/09 Q1008 NOSIG W (280°) 13.8mph 12°C 9°C
27/05/19 07:20 EGNS 270620Z 27012KT 9999 FEW012 SCT017 11/09 Q1008 NOSIG W (270°) 13.8mph 11°C 9°C
27/05/19 06:50 EGNS 270550Z 27011KT 240V310 9999 FEW012 11/10 Q1008 NOSIG W (270°) 12.7mph 11°C 10°C
27/05/19 06:20 EGNS 270520Z 27012KT 240V310 9999 FEW010 BKN045 11/10 Q1007 W (270°) 13.8mph 11°C 10°C
27/05/19 05:50 EGNS 270450Z 26012KT 230V300 9999 FEW008 SCT044 11/09 Q1007 W (260°) 13.8mph 11°C 9°C
27/05/19 05:20 EGNS 270420Z 26012KT 230V300 9999 FEW010 11/09 Q1007 W (260°) 13.8mph 11°C 9°C
27/05/19 04:50 EGNS 270350Z 27013KT 230V300 9999 FEW012 11/09 Q1007 W (270°) 15.0mph 11°C 9°C
27/05/19 03:50 EGNS 270250Z 26011KT 220V300 CAVOK 11/09 Q1008 W (260°) 12.7mph 11°C 9°C
27/05/19 02:50 EGNS 270150Z 27013KT 230V320 9999 FEW030 11/09 Q1008 W (270°) 15.0mph 11°C 9°C
27/05/19 01:50 EGNS 270050Z 27014KT 230V300 CAVOK 12/09 Q1008 W (270°) 16.1mph 12°C 9°C
27/05/19 00:50 EGNS 262350Z 26013KT 230V300 CAVOK 12/09 Q1009 W (260°) 15.0mph 12°C 9°C
26/05/19 23:50 EGNS 262250Z 27014KT 230V300 CAVOK 12/09 Q1009 W (270°) 16.1mph 12°C 9°C
26/05/19 22:50 EGNS 262150Z 27013KT 230V300 CAVOK 12/09 Q1010 W (270°) 15.0mph 12°C 9°C
26/05/19 21:50 EGNS 262050Z 25012KT 230V290 9999 SCT045 12/08 Q1010 WSW (250°) 13.8mph 12°C 8°C
26/05/19 21:20 EGNS 262020Z 27013KT CAVOK 13/08 Q1009 NOSIG W (270°) 15.0mph 13°C 8°C
26/05/19 20:50 EGNS 261950Z 26013KT CAVOK 13/09 Q1009 NOSIG W (260°) 15.0mph 13°C 9°C
26/05/19 20:20 EGNS 261920Z 26016KT CAVOK 14/08 Q1009 NOSIG W (260°) 18.4mph 14°C 8°C
26/05/19 19:50 EGNS 261850Z 28016KT CAVOK 15/08 Q1010 NOSIG W (280°) 18.4mph 15°C 8°C
26/05/19 19:20 EGNS 261820Z 28019KT 9999 FEW028 15/09 Q1010 NOSIG W (280°) 21.9mph 15°C 9°C
26/05/19 18:50 EGNS 261750Z 28016KT 9999 FEW028 15/08 Q1010 NOSIG W (280°) 18.4mph 15°C 8°C
26/05/19 18:20 EGNS 261720Z 28021KT 9999 FEW028 16/08 Q1010 NOSIG W (280°) 24.2mph 16°C 8°C
26/05/19 17:50 EGNS 261650Z 28023KT 9999 FEW028 16/09 Q1010 NOSIG W (280°) 26.5mph 16°C 9°C
26/05/19 17:20 EGNS 261620Z 27022KT 9999 FEW030 16/09 Q1010 NOSIG W (270°) 25.3mph 16°C 9°C
26/05/19 16:20 EGNS 261520Z 29015KT 9999 FEW030 16/10 Q1010 NOSIG WNW (290°) 17.3mph 16°C 10°C
26/05/19 15:50 EGNS 261450Z 28018KT 9999 FEW030 16/10 Q1010 NOSIG W (280°) 20.7mph 16°C 10°C
26/05/19 15:20 EGNS 261420Z 28018KT 9999 FEW030 16/10 Q1010 NOSIG W (280°) 20.7mph 16°C 10°C
26/05/19 14:50 EGNS 261350Z 27020KT 9999 FEW030 16/10 Q1010 NOSIG W (270°) 23.0mph 16°C 10°C
26/05/19 14:20 EGNS 261320Z 27018KT 9999 FEW030 SCT045 16/10 Q1010 NOSIG W (270°) 20.7mph 16°C 10°C
26/05/19 13:50 EGNS 261250Z 27019KT 9999 FEW030 SCT048 17/11 Q1010 NOSIG W (270°) 21.9mph 17°C 11°C
26/05/19 13:20 EGNS 261220Z 27017KT 9999 FEW030 SCT040 16/10 Q1010 NOSIG W (270°) 19.6mph 16°C 10°C
26/05/19 12:20 EGNS 261120Z 25013KT 9999 FEW025 BKN042 15/10 Q1010 NOSIG WSW (250°) 15.0mph 15°C 10°C
26/05/19 11:50 EGNS 261050Z 27020KT 9999 FEW025 BKN038 15/10 Q1010 NOSIG W (270°) 23.0mph 15°C 10°C
26/05/19 11:20 EGNS 261020Z 28021KT 9999 FEW020 BKN032 15/10 Q1010 NOSIG W (280°) 24.2mph 15°C 10°C
26/05/19 10:50 EGNS 260950Z 28022KT 9999 FEW016 SCT030 14/10 Q1009 NOSIG W (280°) 25.3mph 14°C 10°C
26/05/19 10:20 EGNS 260920Z 29019KT 9999 FEW014 BKN022 14/12 Q1009 NOSIG WNW (290°) 21.9mph 14°C 12°C
26/05/19 09:50 EGNS 260850Z 27020KT 9999 -RA FEW005 BKN008 BKN025 15/13 Q1009 BECMG FEW008 -RA W (270°) 23.0mph 15°C 13°C
26/05/19 09:20 EGNS 260820Z 25017KT 9999 FEW006 SCT009 15/13 Q1009 NOSIG WSW (250°) 19.6mph 15°C 13°C
26/05/19 08:50 EGNS 260750Z 25019KT 9999 FEW006 SCT009 15/13 Q1008 NOSIG WSW (250°) 21.9mph 15°C 13°C
26/05/19 08:20 EGNS 260720Z 26017KT 9999 FEW005 SCT010 14/13 Q1009 NOSIG W (260°) 19.6mph 14°C 13°C
26/05/19 07:50 EGNS 260650Z 25017KT 9999 FEW004 BKN008 BKN013 14/13 Q1009 NOSIG WSW (250°) 19.6mph 14°C 13°C
26/05/19 07:20 EGNS 260620Z 25014KT 200V270 9999 -RA SCT002 BKN005 BKN020 13/13 Q1009 NOSIG -RA WSW (250°) 16.1mph 13°C 13°C
26/05/19 06:50 EGNS 260550Z 25011KT 6000 -RA OVC002 13/12 Q1009 NOSIG -RA WSW (250°) 12.7mph 13°C 12°C
26/05/19 06:20 EGNS 260520Z 25009KT 200V280 6000 RA OVC003 13/12 Q1009 NOSIG RA WSW (250°) 10.4mph 13°C 12°C
26/05/19 05:50 EGNS 260450Z 24011KT 6000 -RA OVC004 13/13 Q1009 NOSIG -RA WSW (240°) 12.7mph 13°C 13°C
26/05/19 05:20 EGNS 260420Z 24009KT 200V280 3000 +RA OVC004 13/12 Q1010 NOSIG +RA WSW (240°) 10.4mph 13°C 12°C
26/05/19 04:50 EGNS 260350Z 24009KT 9999 OVC005 13/12 Q1010 WSW (240°) 10.4mph 13°C 12°C
26/05/19 03:50 EGNS 260250Z 25009KT 9999 OVC008 13/12 Q1011 WSW (250°) 10.4mph 13°C 12°C
26/05/19 02:50 EGNS 260150Z 25010KT 9000 -RA OVC010 13/12 Q1011 -RA WSW (250°) 11.5mph 13°C 12°C